Latest Coastal Weather Observations for South Johnstone

IDQ60701

Issued at 11:11 pm EST Saturday 18 April 2015 (issued every 10 minutes, with the page automatically refreshed every 10 minutes)

About coastal observations | Map of coastal stations | Coastal observations for QLD | Marine services | Other Formats
Station Details ID: 032037 Name: SOUTH JOHNSTONE EXP STN Lat: -17.61 Lon: 146.00 Height: 18.3 m
Data from the previous 72 hours. | See also: Recent months at South Johnstone
Date/Time
EST
Temp

°C
Wind Pressure Rain
since 9am
mm
Weather Cloud Vis
km
Sea
Height
m
Swell
Dir
 
Speed
knots
Gust
knots
hPa Trend Height
m
Period
s
Dir
18/11:00pm 25.1 SSE 5 10 1015.9 - 60.6 - - - - - - -
18/10:30pm 25.0 S 4 5 1016.1 - 60.6 - - - - - - -
18/10:00pm 24.6 S 1 5 1016.1 - 60.4 - - - - - - -
18/09:30pm 25.0 S 6 10 1016.2 - 59.6 - - - - - - -
18/09:00pm 25.3 SSE 3 6 1016.0 - 58.8 - - - - - - -
18/08:30pm 25.2 SSE 4 6 1016.0 - 58.8 - - - - - - -
18/08:00pm 25.2 S 4 6 1015.6 - 58.8 - - - - - - -
18/07:30pm 24.9 S 5 7 1015.2 - 58.8 - - - - - - -
18/07:00pm 24.5 SSE 2 6 1014.9 - 58.8 - - - - - - -
18/06:30pm 24.5 S 5 7 1014.8 - 58.8 - - - - - - -
18/06:00pm 24.3 SW 2 5 1014.4 - 58.6 - - - - - - -
18/05:30pm 24.4 S 6 9 1014.1 - 58.6 - - - - - - -
18/05:00pm 25.0 SE 6 11 1014.0 - 58.6 - - - - - - -
18/04:30pm 25.9 S 4 6 1013.7 - 57.8 - - - - - - -
18/04:00pm 25.5 S 1 5 1013.8 - 57.8 - - - - - - -
18/03:30pm 25.4 S 2 6 1013.7 - 57.8 - - - - - - -
18/03:00pm 25.2 SW 4 6 1013.3 - 57.8 - - - - - - -
18/02:30pm 24.9 S 4 6 1013.9 - 57.8 - - - - - - -
18/02:00pm 24.8 ESE 2 5 1014.3 - 57.8 - - - - - - -
18/01:30pm 25.1 S 5 9 1014.4 - 50.0 - - - - - - -
18/01:00pm 24.6 SE 1 5 1014.9 - 50.0 - - - - - - -
18/12:30pm 25.0 SSE 7 13 1015.0 - 49.0 - - - - - - -
18/12:00pm 24.8 S 8 15 1015.1 - 48.8 - - - - - - -
18/11:30am 24.3 SSW 6 9 1015.8 - 48.0 - - - - - - -
18/11:00am 23.6 WNW 4 8 1015.5 - 42.2 - - - - - - -
18/10:30am 23.6 WSW 5 7 1016.5 - 12.8 - - - - - - -
18/10:00am 23.6 NNE 5 8 1016.4 - 2.0 - - - - - - -
18/09:30am 25.1 S 8 12 1016.2 - 0.2 - - - - - - -
18/09:00am 25.3 SSW 7 12 1016.0 - 14.6 - - - - - - -
18/08:30am 25.0 S 7 12 1015.7 - 14.4 - - - - - - -
18/08:00am 24.3 S 5 8 1015.5 - 14.4 - - - - - - -
18/07:30am 23.4 SSE 3 7 1015.4 - 14.2 - - - - - - -
18/07:00am 23.1 E 6 11 1015.1 - 13.6 - - - - - - -
18/06:30am 24.6 S 5 7 1014.2 - 3.8 - - - - - - -
18/06:00am 24.3 SSW 5 9 1013.8 - 3.6 - - - - - - -
18/05:30am 24.1 SSW 4 7 1013.7 - 3.2 - - - - - - -
18/05:00am 24.1 SSW 8 12 1013.7 - 3.2 - - - - - - -
18/04:30am 23.7 S 2 6 1013.9 - 3.0 - - - - - - -
18/04:00am 23.4 SE 6 9 1014.0 - 3.0 - - - - - - -
18/03:30am 23.7 SSW 5 8 1013.6 - 2.4 - - - - - - -
18/03:00am 23.0 WSW 5 8 1013.6 - 2.4 - - - - - - -
18/02:30am 22.8 W 3 5 1013.9 - 2.4 - - - - - - -
18/02:00am 22.8 W 2 5 1014.2 - 2.4 - - - - - - -
18/01:30am 22.7 W 3 6 1014.8 - 2.4 - - - - - - -
18/01:00am 22.5 W 4 6 1015.2 - 2.4 - - - - - - -
18/12:30am 22.5 WNW 4 5 1015.4 - 2.4 - - - - - - -
18/12:00am 23.2 WSW 3 7 1015.7 - 2.4 - - - - - - -
 
Date/Time
EST
Temp

°C
Wind Pressure Rain
since 9am
mm
Weather Cloud Vis
km
Sea
Height
m
Swell
Dir
 
Speed
knots
Gust
knots
hPa Trend Height
m
Period
s
Dir
17/11:30pm 24.1 S 4 12 1016.0 - 2.2 - - - - - - -
17/11:00pm 22.7 WSW 3 6 1016.1 - 2.2 - - - - - - -
17/10:30pm 22.4 WSW 3 6 1016.1 - 2.2 - - - - - - -
17/10:00pm 22.4 WNW 4 5 1016.2 - 2.0 - - - - - - -
17/09:30pm 22.5 W 3 5 1016.1 - 2.0 - - - - - - -
17/09:00pm 22.9 NW 2 6 1015.9 - 2.0 - - - - - - -
17/08:30pm 24.3 SSW 3 5 1015.7 - 1.2 - - - - - - -
17/08:00pm 25.1 SSW 4 7 1015.4 - 1.2 - - - - - - -
17/07:30pm 25.7 SSW 5 7 1015.1 - 1.0 - - - - - - -
17/07:00pm 25.4 S 5 8 1014.9 - 1.0 - - - - - - -
17/06:30pm 25.6 S 5 9 1014.5 - 1.0 - - - - - - -
17/06:00pm 25.3 S 4 6 1014.3 - 1.0 - - - - - - -
17/05:30pm 25.9 SE 4 7 1014.1 - 1.0 - - - - - - -
17/05:00pm 26.4 SE 7 11 1014.0 - 1.0 - - - - - - -
17/04:30pm 26.7 SE 8 12 1013.9 - 1.0 - - - - - - -
17/04:00pm 26.7 SSE 6 14 1013.7 - 1.0 - - - - - - -
17/03:30pm 25.0 SE 9 18 1013.9 - 0.8 - - - - - - -
17/03:00pm 27.5 SE 12 17 1013.7 - 0.8 - - - - - - -
17/02:30pm 27.6 SE 10 17 1014.0 - 0.8 - - - - - - -
17/02:00pm 27.1 SSE 11 18 1014.4 - 0.8 - - - - - - -
17/01:30pm 27.1 SE 11 17 1014.5 - 0.8 - - - - - - -
17/01:00pm 24.9 S 11 17 1015.1 - 0.8 - - - - - - -
17/12:30pm 26.0 ESE 11 17 1015.4 - 0.0 - - - - - - -
17/12:00pm 27.7 SE 12 18 1015.7 - 0.0 - - - - - - -
17/11:30am 27.9 SSE 10 18 1016.3 - 0.0 - - - - - - -
17/11:00am 28.0 SE 10 17 1016.8 - 0.0 - - - - - - -
17/10:30am 27.7 SE 11 16 1017.2 - 0.0 - - - - - - -
17/10:00am 27.7 SE 10 17 1017.4 - 0.0 - - - - - - -
17/09:30am 27.1 SE 10 15 1017.4 - 0.0 - - - - - - -
17/09:00am 26.3 SSE 4 8 1017.5 - 9.4 - - - - - - -
17/08:30am 25.6 S 3 5 1017.4 - 9.4 - - - - - - -
17/08:00am 25.5 SSE 5 9 1017.3 - 9.4 - - - - - - -
17/07:30am 25.6 S 4 6 1017.0 - 9.4 - - - - - - -
17/07:00am 24.4 S 5 9 1016.9 - 9.4 - - - - - - -
17/06:30am 23.5 S 4 6 1016.5 - 9.4 - - - - - - -
17/06:00am 23.5 S 3 7 1015.9 - 9.4 - - - - - - -
17/05:30am 22.5 CALM 0 0 1015.7 - 9.4 - - - - - - -
17/05:00am 22.7 CALM 0 0 1015.6 - 9.4 - - - - - - -
17/04:30am 22.9 SSW 2 4 1015.3 - 9.4 - - - - - - -
17/04:00am 22.8 NW 2 4 1015.5 - 9.4 - - - - - - -
17/03:30am 23.4 SW 2 5 1015.6 - 9.4 - - - - - - -
17/03:00am 23.4 SSE 2 6 1015.6 - 9.4 - - - - - - -
17/02:30am 23.2 S 2 5 1016.0 - 9.4 - - - - - - -
17/02:00am 22.8 S 1 6 1016.3 - 9.4 - - - - - - -
17/01:30am 23.2 S 4 10 1016.9 - 9.2 - - - - - - -
17/01:00am 22.8 S 6 9 1017.3 - 9.2 - - - - - - -
17/12:30am 22.9 E 1 7 1017.7 - 4.4 - - - - - - -
17/12:00am 23.1 SSW 3 6 1017.9 - 4.4 - - - - - - -
 
Date/Time
EST
Temp

°C
Wind Pressure Rain
since 9am
mm
Weather Cloud Vis
km
Sea
Height
m
Swell
Dir
 
Speed
knots
Gust
knots
hPa Trend Height
m
Period
s
Dir
16/11:30pm 23.2 SSE 1 5 1018.6 - 3.8 - - - - - - -
16/11:00pm 23.8 E 4 7 1018.6 - 2.6 - - - - - - -
16/10:30pm 23.8 S 5 9 1018.8 - 2.6 - - - - - - -
16/10:00pm 23.1 ESE 4 5 1018.8 - 2.6 - - - - - - -
16/09:30pm 23.2 SSE 5 10 1019.0 - 2.6 - - - - - - -
16/09:00pm 23.5 E 9 14 1018.7 - 2.6 - - - - - - -
16/08:30pm 24.7 S 3 6 1018.3 - 1.6 - - - - - - -
16/08:00pm 24.1 SSE 2 5 1018.1 - 1.6 - - - - - - -
16/07:30pm 24.0 SE 3 5 1017.8 - 1.6 - - - - - - -
16/07:00pm 24.7 S 4 8 1017.4 - 1.6 - - - - - - -
16/06:30pm 23.9 CALM 0 2 1017.3 - 1.6 - - - - - - -
16/06:00pm 24.2 SSE 3 5 1017.0 - 1.6 - - - - - - -
16/05:30pm 25.9 SE 8 13 1017.1 - 1.0 - - - - - - -
16/05:00pm 27.4 SE 10 17 1016.7 - 0.0 - - - - - - -
16/04:30pm 27.4 SE 9 13 1016.5 - 0.0 - - - - - - -
16/04:00pm 28.2 SE 10 14 1016.4 - 0.0 - - - - - - -
16/03:30pm 28.3 SE 11 18 1016.3 - 0.0 - - - - - - -
16/03:00pm 27.8 SE 12 20 1016.2 - 0.0 - - - - - - -
16/02:30pm 28.2 ESE 11 19 1016.5 - 0.0 - - - - - - -
16/02:00pm 28.5 ESE 10 16 1016.7 - 0.0 - - - - - - -
16/01:30pm 28.7 SE 12 18 1016.9 - 0.0 - - - - - - -
16/01:00pm 28.5 ESE 12 17 1017.3 - 0.0 - - - - - - -
16/12:30pm 28.0 SE 10 16 1017.6 - 0.0 - - - - - - -
16/12:00pm 28.3 ESE 10 16 1017.8 - 0.0 - - - - - - -
16/11:30am 28.6 ESE 10 16 1018.4 - 0.0 - - - - - - -
16/11:00am 28.1 ESE 10 16 1019.0 - 0.0 - - - - - - -
16/10:30am 28.5 ESE 10 17 1019.3 - 0.0 - - - - - - -
16/10:00am 28.4 ESE 10 15 1019.7 - 0.0 - - - - - - -
16/09:30am 28.2 ESE 11 18 1019.8 - 0.0 - - - - - - -
16/09:00am 27.6 SE 11 17 1019.5 - 1.4 - - - - - - -
16/08:30am 27.4 ESE 8 13 1019.5 - 1.4 - - - - - - -
16/08:00am 26.6 ESE 4 7 1019.3 - 1.4 - - - - - - -
16/07:30am 24.6 SSE 4 6 1019.1 - 1.4 - - - - - - -
16/07:00am 23.9 SE 4 6 1018.9 - 1.2 - - - - - - -
16/06:30am 23.5 SE 4 7 1018.4 - 1.2 - - - - - - -
16/06:00am 23.8 S 5 9 1018.2 - 1.2 - - - - - - -
16/05:30am 23.4 SSE 3 7 1018.1 - 1.2 - - - - - - -
16/05:00am 24.0 S 3 4 1017.7 - 0.4 - - - - - - -
16/04:30am 24.1 S 4 7 1017.8 - 0.4 - - - - - - -
16/04:00am 23.8 SSE 4 7 1017.9 - 0.4 - - - - - - -
16/03:30am 23.5 S 2 4 1017.9 - 0.4 - - - - - - -
16/03:00am 23.5 S 3 6 1017.8 - 0.4 - - - - - - -
16/02:30am 23.3 S 2 3 1018.1 - 0.4 - - - - - - -
16/02:00am 23.8 SSE 2 5 1018.5 - 0.2 - - - - - - -
16/01:30am 23.4 CALM 0 4 1018.8 - 0.2 - - - - - - -
16/01:00am 23.6 CALM 0 3 1019.4 - 0.2 - - - - - - -
16/12:30am 23.0 WSW 1 3 1019.7 - 0.2 - - - - - - -
16/12:00am 23.4 CALM 0 0 1020.0 - 0.2 - - - - - - -
 
Date/Time
EST
Temp

°C
Wind Pressure Rain
since 9am
mm
Weather Cloud Vis
km
Sea
Height
m
Swell
Dir
 
Speed
knots
Gust
knots
hPa Trend Height
m
Period
s
Dir
15/11:30pm 24.0 E 3 6 1020.4 - 0.2 - - - - - - -

Other Formats:

Comma delimited format used in spreadsheet applications
http://www.bom.gov.au/fwo/IDQ60701/IDQ60701.95292.axf

JavaScript Object Notation format (JSON) in row-major order
http://www.bom.gov.au/fwo/IDQ60701/IDQ60701.95292.json